sensor_id;sensor_type;location;lat;lon;timestamp;pressure;altitude;pressure_sealevel;temperature;humidity
83177;BME280;73074;52.006;4.704;2023-09-30T00:02:15;102496.16;;;13.61;82.07
83177;BME280;73074;52.006;4.704;2023-09-30T00:07:15;102495.31;;;13.59;81.96
83177;BME280;73074;52.006;4.704;2023-09-30T00:12:16;102496.50;;;13.51;82.21
83177;BME280;73074;52.006;4.704;2023-09-30T00:17:16;102503.72;;;13.46;81.82
83177;BME280;73074;52.006;4.704;2023-09-30T00:22:16;102505.63;;;13.42;82.58
83177;BME280;73074;52.006;4.704;2023-09-30T00:27:16;102511.00;;;13.41;82.67
83177;BME280;73074;52.006;4.704;2023-09-30T00:32:16;102503.97;;;13.38;82.10
83177;BME280;73074;52.006;4.704;2023-09-30T00:37:17;102500.47;;;13.36;82.26
83177;BME280;73074;52.006;4.704;2023-09-30T00:42:17;102504.13;;;13.32;82.49
83177;BME280;73074;52.006;4.704;2023-09-30T00:47:17;102514.13;;;13.25;82.69
83177;BME280;73074;52.006;4.704;2023-09-30T00:52:18;102544.56;;;13.17;83.14
83177;BME280;73074;52.006;4.704;2023-09-30T00:57:19;102529.56;;;13.13;82.88
83177;BME280;73074;52.006;4.704;2023-09-30T01:02:21;102530.47;;;13.12;82.71
83177;BME280;73074;52.006;4.704;2023-09-30T01:07:22;102548.41;;;13.05;82.76
83177;BME280;73074;52.006;4.704;2023-09-30T01:12:22;102552.94;;;13.03;83.15
83177;BME280;73074;52.006;4.704;2023-09-30T01:17:22;102545.84;;;13.02;83.10
83177;BME280;73074;52.006;4.704;2023-09-30T01:22:23;102554.81;;;12.99;83.30
83177;BME280;73074;52.006;4.704;2023-09-30T01:27:23;102545.97;;;12.97;83.57
83177;BME280;73074;52.006;4.704;2023-09-30T01:32:23;102539.84;;;12.92;83.55
83177;BME280;73074;52.006;4.704;2023-09-30T01:37:28;102547.94;;;12.89;83.32
83177;BME280;73074;52.006;4.704;2023-09-30T01:42:29;102543.53;;;12.88;83.29
83177;BME280;73074;52.006;4.704;2023-09-30T01:47:29;102543.75;;;12.79;83.65
83177;BME280;73074;52.006;4.704;2023-09-30T01:52:29;102551.72;;;12.81;84.58
83177;BME280;73074;52.006;4.704;2023-09-30T01:57:30;102554.25;;;12.87;84.03
83177;BME280;73074;52.006;4.704;2023-09-30T02:02:30;102547.94;;;12.89;84.38
83177;BME280;73074;52.006;4.704;2023-09-30T02:07:31;102554.06;;;12.93;84.81
83177;BME280;73074;52.006;4.704;2023-09-30T02:12:31;102552.25;;;12.95;84.68
83177;BME280;73074;52.006;4.704;2023-09-30T02:17:31;102548.63;;;12.97;84.84
83177;BME280;73074;52.006;4.704;2023-09-30T02:22:31;102540.59;;;12.99;84.57
83177;BME280;73074;52.006;4.704;2023-09-30T02:27:32;102536.97;;;13.01;84.96
83177;BME280;73074;52.006;4.704;2023-09-30T02:32:34;102542.22;;;13.05;84.38
83177;BME280;73074;52.006;4.704;2023-09-30T02:37:34;102527.03;;;13.07;84.35
83177;BME280;73074;52.006;4.704;2023-09-30T02:42:38;102527.00;;;13.08;84.51
83177;BME280;73074;52.006;4.704;2023-09-30T02:47:39;102531.59;;;13.03;84.92
83177;BME280;73074;52.006;4.704;2023-09-30T02:52:40;102536.91;;;13.03;84.83
83177;BME280;73074;52.006;4.704;2023-09-30T02:57:40;102536.00;;;13.04;84.70
83177;BME280;73074;52.006;4.704;2023-09-30T03:02:40;102525.31;;;13.04;85.39
83177;BME280;73074;52.006;4.704;2023-09-30T03:07:41;102527.06;;;13.05;85.56
83177;BME280;73074;52.006;4.704;2023-09-30T03:12:41;102533.13;;;13.12;85.30
83177;BME280;73074;52.006;4.704;2023-09-30T03:17:41;102538.38;;;13.15;85.75
83177;BME280;73074;52.006;4.704;2023-09-30T03:22:42;102527.66;;;13.16;85.58
83177;BME280;73074;52.006;4.704;2023-09-30T03:27:44;102526.75;;;13.19;85.48
83177;BME280;73074;52.006;4.704;2023-09-30T03:32:45;102535.63;;;13.19;85.78
83177;BME280;73074;52.006;4.704;2023-09-30T03:37:46;102523.09;;;13.21;85.79
83177;BME280;73074;52.006;4.704;2023-09-30T03:42:49;102520.44;;;13.21;85.71
83177;BME280;73074;52.006;4.704;2023-09-30T03:47:49;102527.56;;;13.21;85.91
83177;BME280;73074;52.006;4.704;2023-09-30T03:52:49;102512.53;;;13.17;86.33
83177;BME280;73074;52.006;4.704;2023-09-30T03:57:53;102518.75;;;13.17;85.71
83177;BME280;73074;52.006;4.704;2023-09-30T04:02:53;102533.88;;;13.17;85.78
83177;BME280;73074;52.006;4.704;2023-09-30T04:07:53;102530.34;;;13.16;85.47
83177;BME280;73074;52.006;4.704;2023-09-30T04:12:57;102537.50;;;13.14;85.62
83177;BME280;73074;52.006;4.704;2023-09-30T04:18:05;102517.91;;;13.15;85.84
83177;BME280;73074;52.006;4.704;2023-09-30T04:23:07;102523.22;;;13.17;86.08
83177;BME280;73074;52.006;4.704;2023-09-30T04:28:07;102537.47;;;13.16;85.62
83177;BME280;73074;52.006;4.704;2023-09-30T04:33:10;102555.38;;;13.12;85.85
83177;BME280;73074;52.006;4.704;2023-09-30T04:38:10;102551.88;;;13.09;86.57
83177;BME280;73074;52.006;4.704;2023-09-30T04:43:10;102540.41;;;13.05;86.33
83177;BME280;73074;52.006;4.704;2023-09-30T04:48:14;102557.16;;;13.12;86.79
83177;BME280;73074;52.006;4.704;2023-09-30T04:53:14;102559.75;;;13.15;86.37
83177;BME280;73074;52.006;4.704;2023-09-30T04:58:14;102549.91;;;13.17;86.54
83177;BME280;73074;52.006;4.704;2023-09-30T05:03:15;102556.19;;;13.14;86.10
83177;BME280;73074;52.006;4.704;2023-09-30T05:08:15;102553.66;;;13.08;86.37
83177;BME280;73074;52.006;4.704;2023-09-30T05:13:15;102555.59;;;13.03;86.33
83177;BME280;73074;52.006;4.704;2023-09-30T05:18:15;102565.44;;;13.01;86.09
83177;BME280;73074;52.006;4.704;2023-09-30T05:23:16;102563.69;;;13.00;86.13
83177;BME280;73074;52.006;4.704;2023-09-30T05:28:16;102568.22;;;12.96;85.74
83177;BME280;73074;52.006;4.704;2023-09-30T05:33:17;102559.34;;;12.96;86.34
83177;BME280;73074;52.006;4.704;2023-09-30T05:38:17;102571.81;;;12.95;86.27
83177;BME280;73074;52.006;4.704;2023-09-30T05:43:29;102563.16;;;12.86;87.03
83177;BME280;73074;52.006;4.704;2023-09-30T05:48:29;102565.94;;;12.81;86.96
83177;BME280;73074;52.006;4.704;2023-09-30T05:53:29;102581.06;;;12.81;87.21
83177;BME280;73074;52.006;4.704;2023-09-30T05:58:30;102581.97;;;12.80;86.67
83177;BME280;73074;52.006;4.704;2023-09-30T06:03:30;102574.78;;;12.83;86.92
83177;BME280;73074;52.006;4.704;2023-09-30T06:08:30;102573.75;;;12.89;87.83
83177;BME280;73074;52.006;4.704;2023-09-30T06:13:32;102569.03;;;13.00;87.38
83177;BME280;73074;52.006;4.704;2023-09-30T06:18:32;102573.25;;;13.07;87.10
83177;BME280;73074;52.006;4.704;2023-09-30T06:23:32;102580.34;;;13.08;87.19
83177;BME280;73074;52.006;4.704;2023-09-30T06:28:33;102589.09;;;13.15;87.30
83177;BME280;73074;52.006;4.704;2023-09-30T06:33:40;102619.16;;;13.23;87.65
83177;BME280;73074;52.006;4.704;2023-09-30T06:38:40;102618.06;;;13.30;88.21
83177;BME280;73074;52.006;4.704;2023-09-30T06:43:41;102622.28;;;13.40;87.88
83177;BME280;73074;52.006;4.704;2023-09-30T06:48:41;102622.03;;;13.48;88.36
83177;BME280;73074;52.006;4.704;2023-09-30T06:53:41;102626.22;;;13.58;87.53
83177;BME280;73074;52.006;4.704;2023-09-30T06:59:03;102637.69;;;13.61;87.52
83177;BME280;73074;52.006;4.704;2023-09-30T07:04:04;102645.69;;;13.63;87.04
83177;BME280;73074;52.006;4.704;2023-09-30T07:09:04;102642.75;;;13.72;87.57
83177;BME280;73074;52.006;4.704;2023-09-30T07:14:04;102649.34;;;13.92;87.23
83177;BME280;73074;52.006;4.704;2023-09-30T07:19:07;102658.75;;;14.05;87.19
83177;BME280;73074;52.006;4.704;2023-09-30T07:24:08;102654.16;;;14.10;87.48
83177;BME280;73074;52.006;4.704;2023-09-30T07:29:11;102667.38;;;14.14;87.12
83177;BME280;73074;52.006;4.704;2023-09-30T07:35:49;102670.97;;;14.13;87.15
83177;BME280;73074;52.006;4.704;2023-09-30T07:40:55;102670.09;;;14.13;86.58
83177;BME280;73074;52.006;4.704;2023-09-30T07:46:07;102668.25;;;14.15;86.41
83177;BME280;73074;52.006;4.704;2023-09-30T07:51:32;102660.88;;;14.23;87.00
83177;BME280;73074;52.006;4.704;2023-09-30T07:56:54;102659.81;;;14.29;86.86
83177;BME280;73074;52.006;4.704;2023-09-30T08:02:09;102647.22;;;14.34;86.94
83177;BME280;73074;52.006;4.704;2023-09-30T08:07:13;102636.25;;;14.41;87.08
83177;BME280;73074;52.006;4.704;2023-09-30T08:12:19;102629.91;;;14.47;86.76
83177;BME280;73074;52.006;4.704;2023-09-30T08:17:29;102635.75;;;14.60;86.59
83177;BME280;73074;52.006;4.704;2023-09-30T08:22:37;102642.56;;;14.70;86.60
83177;BME280;73074;52.006;4.704;2023-09-30T08:27:45;102644.78;;;14.84;86.39
83177;BME280;73074;52.006;4.704;2023-09-30T08:32:47;102640.75;;;14.98;86.06
83177;BME280;73074;52.006;4.704;2023-09-30T08:38:02;102641.28;;;15.08;85.36
83177;BME280;73074;52.006;4.704;2023-09-30T08:43:13;102649.78;;;15.21;85.29
83177;BME280;73074;52.006;4.704;2023-09-30T08:48:20;102665.44;;;15.33;84.70
83177;BME280;73074;52.006;4.704;2023-09-30T08:53:27;102682.59;;;15.54;84.60
83177;BME280;73074;52.006;4.704;2023-09-30T08:58:42;102685.09;;;15.85;83.76
83177;BME280;73074;52.006;4.704;2023-09-30T09:04:05;102693.81;;;16.15;83.10
83177;BME280;73074;52.006;4.704;2023-09-30T09:09:19;102708.84;;;16.44;82.58
83177;BME280;73074;52.006;4.704;2023-09-30T09:14:50;102726.53;;;16.73;79.72
83177;BME280;73074;52.006;4.704;2023-09-30T09:20:00;102726.13;;;17.05;78.23
83177;BME280;73074;52.006;4.704;2023-09-30T09:25:23;102723.44;;;17.27;75.57
83177;BME280;73074;52.006;4.704;2023-09-30T09:30:26;102718.59;;;17.35;76.55
83177;BME280;73074;52.006;4.704;2023-09-30T09:35:31;102727.59;;;17.34;72.97
83177;BME280;73074;52.006;4.704;2023-09-30T09:40:34;102728.47;;;17.35;73.18
83177;BME280;73074;52.006;4.704;2023-09-30T09:45:43;102722.53;;;17.49;74.55
83177;BME280;73074;52.006;4.704;2023-09-30T09:50:49;102722.00;;;17.61;73.84
83177;BME280;73074;52.006;4.704;2023-09-30T09:55:51;102737.63;;;17.73;71.03
83177;BME280;73074;52.006;4.704;2023-09-30T10:01:01;102720.84;;;17.88;70.28
83177;BME280;73074;52.006;4.704;2023-09-30T10:06:22;102728.19;;;18.05;69.15
83177;BME280;73074;52.006;4.704;2023-09-30T10:11:46;102717.75;;;18.18;70.01
83177;BME280;73074;52.006;4.704;2023-09-30T10:17:08;102689.69;;;18.42;69.38
83177;BME280;73074;52.006;4.704;2023-09-30T10:22:34;102696.84;;;18.81;67.58
83177;BME280;73074;52.006;4.704;2023-09-30T10:27:49;102701.44;;;19.51;69.57
83177;BME280;73074;52.006;4.704;2023-09-30T10:43:59;102692.84;;;23.25;52.14
83177;BME280;73074;52.006;4.704;2023-09-30T10:54:34;102696.22;;;24.57;49.35
83177;BME280;73074;52.006;4.704;2023-09-30T11:00:07;102691.69;;;23.81;46.77
83177;BME280;73074;52.006;4.704;2023-09-30T11:05:22;102698.72;;;21.76;50.95
83177;BME280;73074;52.006;4.704;2023-09-30T11:10:25;102690.25;;;20.44;51.67
83177;BME280;73074;52.006;4.704;2023-09-30T11:15:26;102675.59;;;19.82;52.72
83177;BME280;73074;52.006;4.704;2023-09-30T11:20:29;102661.09;;;19.67;53.71
83177;BME280;73074;52.006;4.704;2023-09-30T11:31:02;102680.00;;;20.98;52.05
83177;BME280;73074;52.006;4.704;2023-09-30T11:36:10;102691.28;;;22.10;52.03
83177;BME280;73074;52.006;4.704;2023-09-30T11:41:36;102683.88;;;22.69;47.02
83177;BME280;73074;52.006;4.704;2023-09-30T11:46:56;102689.50;;;22.66;46.75
83177;BME280;73074;52.006;4.704;2023-09-30T11:52:11;102690.03;;;22.99;47.57
83177;BME280;73074;52.006;4.704;2023-09-30T11:57:30;102660.97;;;23.41;45.98
83177;BME280;73074;52.006;4.704;2023-09-30T12:02:31;102644.44;;;23.71;42.34
83177;BME280;73074;52.006;4.704;2023-09-30T12:07:42;102655.06;;;23.74;43.12
83177;BME280;73074;52.006;4.704;2023-09-30T12:12:50;102650.84;;;23.83;42.47
83177;BME280;73074;52.006;4.704;2023-09-30T12:18:01;102643.13;;;23.77;43.42
83177;BME280;73074;52.006;4.704;2023-09-30T12:23:07;102643.81;;;23.93;41.41
83177;BME280;73074;52.006;4.704;2023-09-30T12:28:15;102661.81;;;24.20;42.01
83177;BME280;73074;52.006;4.704;2023-09-30T12:33:49;102651.25;;;24.28;41.13
83177;BME280;73074;52.006;4.704;2023-09-30T12:38:59;102644.91;;;23.78;39.88
83177;BME280;73074;52.006;4.704;2023-09-30T12:44:10;102652.09;;;23.52;40.88
83177;BME280;73074;52.006;4.704;2023-09-30T12:49:27;102648.47;;;23.78;41.90
83177;BME280;73074;52.006;4.704;2023-09-30T12:54:32;102640.38;;;23.51;42.09
83177;BME280;73074;52.006;4.704;2023-09-30T12:59:36;102644.84;;;23.52;42.21
83177;BME280;73074;52.006;4.704;2023-09-30T13:04:44;102647.81;;;23.75;41.67
83177;BME280;73074;52.006;4.704;2023-09-30T13:09:45;102640.22;;;24.31;43.04
83177;BME280;73074;52.006;4.704;2023-09-30T13:15:29;102635.53;;;24.93;40.85
83177;BME280;73074;52.006;4.704;2023-09-30T13:20:29;102638.75;;;25.22;41.69
83177;BME280;73074;52.006;4.704;2023-09-30T13:25:41;102623.84;;;24.80;39.68
83177;BME280;73074;52.006;4.704;2023-09-30T13:30:59;102617.28;;;24.83;40.21
83177;BME280;73074;52.006;4.704;2023-09-30T13:36:08;102619.16;;;24.82;39.79
83177;BME280;73074;52.006;4.704;2023-09-30T13:41:23;102606.81;;;25.48;39.54
83177;BME280;73074;52.006;4.704;2023-09-30T13:46:57;102607.50;;;25.74;37.63
83177;BME280;73074;52.006;4.704;2023-09-30T13:52:01;102608.28;;;24.58;39.46
83177;BME280;73074;52.006;4.704;2023-09-30T13:57:03;102613.63;;;23.20;42.42
83177;BME280;73074;52.006;4.704;2023-09-30T14:02:18;102597.66;;;22.34;43.41
83177;BME280;73074;52.006;4.704;2023-09-30T14:07:37;102590.09;;;22.39;46.33
83177;BME280;73074;52.006;4.704;2023-09-30T14:12:47;102588.69;;;21.77;47.07
83177;BME280;73074;52.006;4.704;2023-09-30T14:17:58;102596.00;;;21.89;47.61
83177;BME280;73074;52.006;4.704;2023-09-30T14:23:07;102578.34;;;22.53;46.56
83177;BME280;73074;52.006;4.704;2023-09-30T14:28:08;102589.38;;;22.91;45.22
83177;BME280;73074;52.006;4.704;2023-09-30T14:33:21;102591.59;;;22.58;43.99
83177;BME280;73074;52.006;4.704;2023-09-30T14:38:31;102594.97;;;22.20;44.66
83177;BME280;73074;52.006;4.704;2023-09-30T14:43:46;102600.38;;;21.77;44.83
83177;BME280;73074;52.006;4.704;2023-09-30T14:48:47;102605.94;;;21.46;46.24
83177;BME280;73074;52.006;4.704;2023-09-30T14:53:48;102571.47;;;21.78;45.28
83177;BME280;73074;52.006;4.704;2023-09-30T14:58:52;102576.28;;;21.87;42.92
83177;BME280;73074;52.006;4.704;2023-09-30T15:03:53;102577.56;;;21.81;43.92
83177;BME280;73074;52.006;4.704;2023-09-30T15:08:54;102590.56;;;21.46;46.34
83177;BME280;73074;52.006;4.704;2023-09-30T15:13:55;102561.94;;;20.98;47.76
83177;BME280;73074;52.006;4.704;2023-09-30T15:18:58;102558.97;;;20.73;47.25
83177;BME280;73074;52.006;4.704;2023-09-30T15:23:59;102558.63;;;20.63;47.89
83177;BME280;73074;52.006;4.704;2023-09-30T15:29:14;102549.41;;;20.51;48.74
83177;BME280;73074;52.006;4.704;2023-09-30T15:34:30;102544.09;;;20.50;48.47
83177;BME280;73074;52.006;4.704;2023-09-30T15:39:41;102547.56;;;20.20;50.02
83177;BME280;73074;52.006;4.704;2023-09-30T15:44:42;102536.00;;;19.69;52.02
83177;BME280;73074;52.006;4.704;2023-09-30T15:49:54;102532.25;;;19.56;53.41
83177;BME280;73074;52.006;4.704;2023-09-30T15:54:55;102530.72;;;19.33;53.60
83177;BME280;73074;52.006;4.704;2023-09-30T15:59:57;102523.84;;;19.28;53.04
83177;BME280;73074;52.006;4.704;2023-09-30T16:05:01;102524.72;;;19.28;53.49
83177;BME280;73074;52.006;4.704;2023-09-30T16:10:04;102531.16;;;19.26;53.91
83177;BME280;73074;52.006;4.704;2023-09-30T16:15:07;102521.41;;;19.23;55.04
83177;BME280;73074;52.006;4.704;2023-09-30T16:20:28;102547.25;;;19.10;54.80
83177;BME280;73074;52.006;4.704;2023-09-30T16:25:29;102546.94;;;18.99;55.16
83177;BME280;73074;52.006;4.704;2023-09-30T16:30:33;102556.03;;;18.96;54.95
83177;BME280;73074;52.006;4.704;2023-09-30T16:35:37;102553.91;;;18.85;55.65
83177;BME280;73074;52.006;4.704;2023-09-30T16:40:46;102542.38;;;18.82;55.95
83177;BME280;73074;52.006;4.704;2023-09-30T16:46:17;102559.81;;;18.75;56.72
83177;BME280;73074;52.006;4.704;2023-09-30T16:51:18;102560.06;;;18.70;57.27
83177;BME280;73074;52.006;4.704;2023-09-30T16:56:32;102555.09;;;18.61;58.35
83177;BME280;73074;52.006;4.704;2023-09-30T17:01:55;102556.72;;;18.46;58.73
83177;BME280;73074;52.006;4.704;2023-09-30T17:07:04;102550.34;;;18.30;59.49
83177;BME280;73074;52.006;4.704;2023-09-30T17:12:05;102549.13;;;18.18;60.17
83177;BME280;73074;52.006;4.704;2023-09-30T17:17:06;102548.59;;;18.10;59.80
83177;BME280;73074;52.006;4.704;2023-09-30T17:22:11;102555.09;;;18.06;61.19
83177;BME280;73074;52.006;4.704;2023-09-30T17:27:15;102555.44;;;17.98;60.93
83177;BME280;73074;52.006;4.704;2023-09-30T17:32:16;102545.72;;;17.96;60.98
83177;BME280;73074;52.006;4.704;2023-09-30T17:37:18;102538.81;;;17.90;61.91
83177;BME280;73074;52.006;4.704;2023-09-30T17:42:25;102530.94;;;17.86;60.97
83177;BME280;73074;52.006;4.704;2023-09-30T17:47:26;102523.38;;;17.75;61.91
83177;BME280;73074;52.006;4.704;2023-09-30T17:52:33;102520.22;;;17.65;61.73
83177;BME280;73074;52.006;4.704;2023-09-30T17:57:39;102532.34;;;17.55;63.21
83177;BME280;73074;52.006;4.704;2023-09-30T18:02:42;102546.03;;;17.49;64.27
83177;BME280;73074;52.006;4.704;2023-09-30T18:07:47;102556.41;;;17.38;63.52
83177;BME280;73074;52.006;4.704;2023-09-30T18:12:51;102551.22;;;17.33;63.42
83177;BME280;73074;52.006;4.704;2023-09-30T18:18:04;102549.28;;;17.37;64.66
83177;BME280;73074;52.006;4.704;2023-09-30T18:23:08;102534.31;;;17.31;64.76
83177;BME280;73074;52.006;4.704;2023-09-30T18:28:12;102526.63;;;17.22;65.48
83177;BME280;73074;52.006;4.704;2023-09-30T18:33:19;102525.25;;;17.13;66.02
83177;BME280;73074;52.006;4.704;2023-09-30T18:38:22;102519.88;;;17.13;65.98
83177;BME280;73074;52.006;4.704;2023-09-30T18:43:30;102523.50;;;17.12;66.00
83177;BME280;73074;52.006;4.704;2023-09-30T18:48:45;102529.94;;;17.08;66.41
83177;BME280;73074;52.006;4.704;2023-09-30T18:53:46;102519.06;;;16.91;66.03
83177;BME280;73074;52.006;4.704;2023-09-30T18:58:48;102522.69;;;16.70;67.71
83177;BME280;73074;52.006;4.704;2023-09-30T19:10:18;102524.03;;;16.36;69.49
83177;BME280;73074;52.006;4.704;2023-09-30T19:15:35;102527.41;;;16.19;69.93
83177;BME280;73074;52.006;4.704;2023-09-30T19:20:47;102526.06;;;16.08;70.57
83177;BME280;73074;52.006;4.704;2023-09-30T19:25:57;102520.25;;;15.96;70.98
83177;BME280;73074;52.006;4.704;2023-09-30T19:31:22;102518.56;;;15.94;71.42
83177;BME280;73074;52.006;4.704;2023-09-30T19:36:34;102506.22;;;15.90;71.20
83177;BME280;73074;52.006;4.704;2023-09-30T19:41:54;102492.84;;;15.88;70.51
83177;BME280;73074;52.006;4.704;2023-09-30T19:46:57;102522.13;;;15.94;71.27
83177;BME280;73074;52.006;4.704;2023-09-30T19:52:19;102534.41;;;16.00;71.25
83177;BME280;73074;52.006;4.704;2023-09-30T19:57:37;102533.31;;;16.06;71.22
83177;BME280;73074;52.006;4.704;2023-09-30T20:02:42;102516.16;;;16.10;70.91
83177;BME280;73074;52.006;4.704;2023-09-30T20:07:44;102526.75;;;16.13;70.74
83177;BME280;73074;52.006;4.704;2023-09-30T20:13:02;102529.38;;;16.14;71.31
83177;BME280;73074;52.006;4.704;2023-09-30T20:18:04;102529.28;;;16.17;70.88
83177;BME280;73074;52.006;4.704;2023-09-30T20:23:23;102533.56;;;16.21;70.81
83177;BME280;73074;52.006;4.704;2023-09-30T20:28:32;102528.19;;;16.21;71.06
83177;BME280;73074;52.006;4.704;2023-09-30T20:33:36;102534.44;;;16.22;70.41
83177;BME280;73074;52.006;4.704;2023-09-30T20:38:37;102544.22;;;16.23;71.14
83177;BME280;73074;52.006;4.704;2023-09-30T20:43:43;102526.38;;;16.22;71.75
83177;BME280;73074;52.006;4.704;2023-09-30T20:49:15;102521.16;;;16.19;70.93
83177;BME280;73074;52.006;4.704;2023-09-30T20:54:42;102529.22;;;16.19;71.06
83177;BME280;73074;52.006;4.704;2023-09-30T20:59:56;102538.13;;;16.19;70.78
83177;BME280;73074;52.006;4.704;2023-09-30T21:04:58;102539.72;;;16.23;71.04
83177;BME280;73074;52.006;4.704;2023-09-30T21:10:00;102529.88;;;16.24;70.87
83177;BME280;73074;52.006;4.704;2023-09-30T21:15:20;102524.50;;;16.24;70.49
83177;BME280;73074;52.006;4.704;2023-09-30T21:20:39;102528.19;;;16.21;70.94
83177;BME280;73074;52.006;4.704;2023-09-30T21:25:50;102528.19;;;16.21;71.29
83177;BME280;73074;52.006;4.704;2023-09-30T21:30:51;102525.59;;;16.20;71.80
83177;BME280;73074;52.006;4.704;2023-09-30T21:36:32;102512.25;;;16.18;71.95
83177;BME280;73074;52.006;4.704;2023-09-30T21:41:43;102509.56;;;16.18;71.91
83177;BME280;73074;52.006;4.704;2023-09-30T21:46:54;102498.84;;;16.18;71.99
83177;BME280;73074;52.006;4.704;2023-09-30T21:52:00;102489.16;;;16.14;72.53
83177;BME280;73074;52.006;4.704;2023-09-30T21:57:09;102493.69;;;16.12;72.61
83177;BME280;73074;52.006;4.704;2023-09-30T22:02:18;102489.34;;;16.10;72.67
83177;BME280;73074;52.006;4.704;2023-09-30T22:07:20;102486.59;;;16.11;72.97
83177;BME280;73074;52.006;4.704;2023-09-30T22:12:26;102498.25;;;16.10;73.15
83177;BME280;73074;52.006;4.704;2023-09-30T22:17:27;102482.31;;;16.07;73.01
83177;BME280;73074;52.006;4.704;2023-09-30T22:22:29;102474.13;;;16.10;73.19
83177;BME280;73074;52.006;4.704;2023-09-30T22:27:33;102476.00;;;16.08;73.52
83177;BME280;73074;52.006;4.704;2023-09-30T22:32:34;102476.00;;;16.08;73.66
83177;BME280;73074;52.006;4.704;2023-09-30T22:37:42;102462.66;;;16.07;73.82
83177;BME280;73074;52.006;4.704;2023-09-30T22:42:43;102461.84;;;16.05;74.05
83177;BME280;73074;52.006;4.704;2023-09-30T22:47:46;102462.72;;;16.05;74.47
83177;BME280;73074;52.006;4.704;2023-09-30T22:52:50;102454.63;;;16.07;74.31
83177;BME280;73074;52.006;4.704;2023-09-30T22:58:14;102457.28;;;16.07;74.87
83177;BME280;73074;52.006;4.704;2023-09-30T23:03:25;102451.13;;;16.05;75.56
83177;BME280;73074;52.006;4.704;2023-09-30T23:08:28;102446.72;;;16.04;75.50
83177;BME280;73074;52.006;4.704;2023-09-30T23:14:00;102447.56;;;16.04;75.39
83177;BME280;73074;52.006;4.704;2023-09-30T23:19:03;102432.28;;;16.06;75.05
83177;BME280;73074;52.006;4.704;2023-09-30T23:24:05;102430.56;;;16.05;75.58
83177;BME280;73074;52.006;4.704;2023-09-30T23:29:18;102423.44;;;16.04;75.31
83177;BME280;73074;52.006;4.704;2023-09-30T23:34:19;102403.81;;;16.04;75.09
83177;BME280;73074;52.006;4.704;2023-09-30T23:39:21;102404.09;;;15.96;75.49
83177;BME280;73074;52.006;4.704;2023-09-30T23:44:22;102412.50;;;15.87;74.73
83177;BME280;73074;52.006;4.704;2023-09-30T23:49:37;102411.91;;;15.80;75.35
83177;BME280;73074;52.006;4.704;2023-09-30T23:54:41;102405.75;;;15.78;75.56
